Flight Track Log - Related Links

Times and Time Zones

All times are in EDT time to prevent confusion due to time zone crossing. See the UAL1202 flight status page for this flight to view local times or setup timezone preferences in your user account.

Time Position Orientation Groundspeed Altitude Reporting Facility
EDT Latitude Longitude Course Direction KTS MPH feet Rate Location/Type
Thu 11:25:15 AM 37.6561 -122.3631 134° Southeast 183 211 1,700  Level Oakland Center
Thu 11:26:17 AM 37.7075 -122.3878 339° North 233 268 3,100 1,756 Climbing Oakland Center
Thu 11:27:00 AM 37.4209 -122.3294 113° Southeast  Level FlightAware Approximate
Thu 11:27:18 AM 37.6794 -122.4564 243° Southwest 256 295 5,300  Level Oakland Center
Thu 11:28:00 AM 37.3284 -122.2008 136° Southeast  Level FlightAware Approximate
Thu 11:28:20 AM 37.6017 -122.4783 193° South 282 325 7,700  Level Oakland Center
Thu 11:29:00 AM 37.2308 -122.0791 127° Southeast  Level FlightAware Approximate
Thu 11:29:21 AM 37.5225 -122.4581 169° South 306 352 10,200  Level Oakland Center
Thu 11:30:00 AM 37.1416 -121.9462 134° Southeast  Level FlightAware Approximate
Thu 11:30:23 AM 37.4569 -122.3750 135° Southeast 336 387 11,300  Level Oakland Center
Thu 11:31:24 AM 37.3775 -122.2500 129° Southeast 382 440 13,100 1,463 Climbing Oakland Center
Thu 11:32:26 AM 37.3072 -122.1319 127° Southeast 416 479 14,300 1,366 Climbing Oakland Center
Thu 11:33:27 AM 37.2314 -122.0089 128° Southeast 443 510 15,900 1,512 Climbing Oakland Center
Thu 11:34:29 AM 37.1525 -121.8806 128° Southeast 459 528 17,400 1,415 Climbing Oakland Center
Thu 11:35:30 AM 37.0708 -121.7492 128° Southeast 474 545 18,800 1,317 Climbing Oakland Center
Thu 11:36:32 AM 36.9864 -121.6178 129° Southeast 483 556 20,100 1,317 Climbing Oakland Center
Thu 11:37:33 AM 36.9008 -121.4803 128° Southeast 496 571 21,500 1,366 Climbing Oakland Center
Thu 11:38:35 AM 36.8114 -121.3381 128° Southeast 507 583 22,900 1,317 Climbing Oakland Center
Thu 11:39:36 AM 36.7222 -121.1992 129° Southeast 513 590 24,200 1,279 Climbing Oakland Center
Thu 11:40:37 AM 36.6147 -121.0294 128° Southeast 518 596 25,500 1,171 Climbing Oakland Center
Thu 11:41:39 AM 36.5228 -120.8867 129° Southeast 525 604 26,600 1,355 Climbing Oakland Center
Thu 11:42:41 AM 36.4319 -120.7450 129° Southeast 525 604 28,300 1,415 Climbing Oakland Center
Thu 11:43:42 AM 36.3428 -120.6056 128° Southeast 518 596 29,500 1,171 Climbing Oakland Center
Thu 11:44:44 AM 36.2539 -120.4681 129° Southeast 512 589 30,700 732 Climbing Oakland Center
Thu 11:45:45 AM 36.1636 -120.3303 129° Southeast 513 590 31,000 146 Climbing Oakland Center
Thu 11:46:47 AM 36.0733 -120.1925 129° Southeast 514 592 31,000  Level Oakland Center
Thu 11:47:48 AM 35.9828 -120.0558 129° Southeast 512 589 31,000  Level Oakland Center
Thu 11:48:49 AM 35.8942 -119.9203 129° Southeast 507 583 31,000  Level Oakland Center
Thu 11:49:51 AM 35.8039 -119.7839 129° Southeast 509 586 31,000  Level Oakland Center
Thu 11:50:52 AM 35.6975 -119.6233 129° Southeast 504 580 31,000  Level Oakland Center
Thu 11:51:54 AM 35.6069 -119.4889 130° Southeast 506 582 31,000  Level Oakland Center
Thu 11:52:56 AM 35.5175 -119.3558 130° Southeast 504 580 31,000  Level Oakland Center
Thu 11:53:57 AM 35.4289 -119.2228 129° Southeast 504 580 31,000  Level Oakland Center
Thu 11:54:59 AM 35.3403 -119.0914 130° Southeast 501 577 31,000  Level Oakland Center
Thu 11:56:00 AM 35.2514 -118.9608 130° Southeast 500 575 31,000  Level Oakland Center
Thu 11:57:02 AM 35.1631 -118.8297 129° Southeast 499 574 31,000  Level Oakland Center
Thu 11:58:03 AM 35.0744 -118.6994 130° Southeast 498 573 31,000  Level Oakland Center
Thu 11:59:30 AM 34.9483 -118.5194 130° Southeast 495 570 31,000  Level Los Angeles Center
Thu 12:00:32 PM 34.8556 -118.3869 130° Southeast 497 572 31,000  Level Los Angeles Center
Thu 12:01:34 PM 34.7489 -118.2336 130° Southeast 499 574 31,000  Level Los Angeles Center
Thu 12:02:36 PM 34.6614 -118.1053 130° Southeast 498 573 31,000  Level Los Angeles Center
Thu 12:03:38 PM 34.6467 -117.9392 96° East 512 589 31,000  Level Los Angeles Center
Thu 12:04:40 PM 34.6625 -117.7697 83° East 510 587 31,000  Level Los Angeles Center
Thu 12:05:42 PM 34.6803 -117.5986 83° East 513 590 31,000  Level Los Angeles Center
Thu 12:06:44 PM 34.7017 -117.3947 83° East 513 590 31,000  Level Los Angeles Center
Thu 12:07:47 PM 34.7203 -117.2256 82° East 512 589 31,000  Level Los Angeles Center
Thu 12:08:49 PM 34.7386 -117.0536 83° East 516 594 31,000  Level Los Angeles Center
Thu 12:09:51 PM 34.7558 -116.8836 83° East 512 589 31,000  Level Los Angeles Center
Thu 12:10:53 PM 34.7761 -116.6800 83° East 510 587 31,000  Level Los Angeles Center
Thu 12:11:55 PM 34.7922 -116.5106 83° East 509 586 31,000  Level Los Angeles Center
Thu 12:12:57 PM 34.8058 -116.3394 84° East 510 587 31,000  Level Los Angeles Center
Thu 12:13:59 PM 34.8144 -116.1686 86° East 509 586 31,000  Level Los Angeles Center
Thu 12:15:01 PM 34.8247 -115.9972 86° East 509 586 31,000  Level Los Angeles Center
Thu 12:16:03 PM 34.8356 -115.8244 86° East 513 590 31,000  Level Los Angeles Center
Thu 12:17:17 PM 34.8483 -115.6186 86° East 511 588 31,000  Level Los Angeles Center
Thu 12:18:20 PM 34.8611 -115.4047 86° East 509 586 31,000  Level Los Angeles Center
Thu 12:19:22 PM 34.8711 -115.2347 86° East 506 582 31,000  Level Los Angeles Center
Thu 12:20:24 PM 34.8797 -115.0603 87° East 512 589 31,000  Level Los Angeles Center
Thu 12:21:26 PM 34.8892 -114.8889 86° East 512 589 31,000  Level Los Angeles Center
Thu 12:22:28 PM 34.8981 -114.7158 86° East 512 589 31,000  Level Los Angeles Center
Thu 12:23:30 PM 34.9089 -114.5075 86° East 517 595 31,000  Level Los Angeles Center
Thu 12:24:33 PM 34.9169 -114.3358 87° East 509 586 31,000  Level Los Angeles Center
Thu 12:25:35 PM 34.9244 -114.1644 87° East 508 585 31,000  Level Los Angeles Center
Thu 12:26:37 PM 34.9331 -113.9925 86° East 509 586 31,000  Level Los Angeles Center
Thu 12:27:39 PM 34.9411 -113.8067 87° East 507 583 31,000  Level Los Angeles Center
Thu 12:28:41 PM 34.9489 -113.6367 87° East 508 585 31,000  Level Los Angeles Center
Thu 12:29:43 PM 34.9564 -113.4669 87° East 508 585 31,000  Level Los Angeles Center
Thu 12:30:45 PM 34.9625 -113.2981 87° East 506 582 31,000  Level Los Angeles Center
Thu 12:31:47 PM 34.9703 -113.0933 87° East 511 588 31,000  Level Los Angeles Center
Thu 12:32:51 PM 34.9761 -112.9233 88° East 507 583 31,000  Level Albuquerque Center
Thu 12:33:53 PM 34.9822 -112.7547 87° East 507 583 31,000  Level Albuquerque Center
Thu 12:34:55 PM 34.9894 -112.5531 87° East 505 581 31,000  Level Albuquerque Center
Thu 12:35:57 PM 34.9942 -112.3844 88° East 504 580 31,000  Level Albuquerque Center
Thu 12:36:59 PM 34.9992 -112.2142 88° East 506 582 31,000  Level Albuquerque Center
Thu 12:38:01 PM 35.0047 -112.0447 88° East 505 581 31,000  Level Albuquerque Center
Thu 12:39:03 PM 35.0094 -111.8753 88° East 506 582 31,000  Level Albuquerque Center
Thu 12:40:05 PM 35.0147 -111.6717 88° East 505 581 31,000  Level Albuquerque Center
Thu 12:41:07 PM 35.0189 -111.5008 88° East 504 580 31,000  Level Albuquerque Center
Thu 12:42:09 PM 35.0231 -111.3303 88° East 504 580 31,000  Level Albuquerque Center
Thu 12:43:11 PM 35.0267 -111.1575 88° East 508 585 31,000  Level Albuquerque Center
Thu 12:44:14 PM 35.0297 -110.9853 89° East 507 583 31,000  Level Albuquerque Center
Thu 12:45:16 PM 35.0333 -110.8136 88° East 507 583 31,000  Level Albuquerque Center
Thu 12:46:18 PM 35.0378 -110.6233 88° East 504 580 31,000  Level Albuquerque Center
Thu 12:47:20 PM 35.0400 -110.4308 89° East 507 583 31,000  Level Albuquerque Center
Thu 12:48:22 PM 35.0425 -110.2669 89° East 506 582 31,000  Level Albuquerque Center
Thu 12:49:24 PM 35.0461 -110.0761 89° East 506 582 31,000  Level Albuquerque Center
Thu 12:50:26 PM 35.0481 -109.9108 89° East 508 585 31,000  Level Albuquerque Center
Thu 12:51:28 PM 35.0497 -109.7200 89° East 506 582 31,000  Level Albuquerque Center
Thu 12:52:30 PM 35.0519 -109.5569 89° East 506 582 31,000  Level Albuquerque Center
Thu 12:53:32 PM 35.0533 -109.3664 89° East 504 580 31,000  Level Albuquerque Center
Thu 12:54:34 PM 35.0542 -109.2033 90° East 505 581 31,000  Level Albuquerque Center
Thu 12:55:36 PM 35.0558 -109.0136 89° East 503 579 31,000  Level Albuquerque Center
Thu 12:56:38 PM 35.0561 -108.8517 90° East 501 577 31,000  Level Albuquerque Center
Thu 12:57:40 PM 35.0575 -108.6631 89° East 500 575 31,000  Level Albuquerque Center
Thu 12:58:42 PM 35.0808 -108.5039 80° East 501 577 31,000  Level Albuquerque Center
Thu 12:59:45 PM 35.1172 -108.3197 76° East 501 577 31,000  Level Albuquerque Center
Thu 01:00:47 PM 35.1481 -108.1622 76° East 501 577 31,000  Level Albuquerque Center
Thu 01:01:49 PM 35.1839 -107.9775 77° East 501 577 31,000  Level Albuquerque Center
Thu 01:02:51 PM 35.2153 -107.8208 76° East 499 574 31,000  Level Albuquerque Center
Thu 01:03:53 PM 35.2508 -107.6369 77° East 499 574 31,000  Level Albuquerque Center
Thu 01:04:55 PM 35.2803 -107.4794 77° East 496 571 31,000  Level Albuquerque Center
Thu 01:05:57 PM 35.3122 -107.3133 77° East 497 572 31,000  Level Albuquerque Center
Thu 01:06:59 PM 35.3453 -107.1369 77° East 501 577 31,000  Level Albuquerque Center
Thu 01:08:01 PM 35.3739 -106.9792 77° East 498 573 31,000  Level Albuquerque Center
Thu 01:09:03 PM 35.4081 -106.8094 76° East 500 575 31,000  Level Albuquerque Center
Thu 01:10:05 PM 35.4375 -106.6414 78° East 500 575 31,000  Level Albuquerque Center
Thu 01:11:07 PM 35.4678 -106.4753 77° East 498 573 31,000  Level Albuquerque Center
Thu 01:12:09 PM 35.5031 -106.2750 78° East 499 574 31,000  Level Albuquerque Center
Thu 01:13:11 PM 35.5339 -106.1086 77° East 499 574 31,000  Level Albuquerque Center
Thu 01:14:13 PM 35.5633 -105.9419 78° East 498 573 31,000  Level Albuquerque Center
Thu 01:15:15 PM 35.5942 -105.7642 78° East 499 574 31,000  Level Albuquerque Center
Thu 01:16:17 PM 35.6228 -105.5953 78° East 501 577 31,000  Level Albuquerque Center
Thu 01:17:19 PM 35.6503 -105.4267 79° East 499 574 31,000  Level Albuquerque Center
Thu 01:18:21 PM 35.6794 -105.2550 78° East 505 581 31,000  Level Albuquerque Center
Thu 01:19:24 PM 35.7050 -105.0864 79° East 500 575 31,000  Level Albuquerque Center
Thu 01:20:26 PM 35.7336 -104.9139 78° East 505 581 31,000  Level Albuquerque Center
Thu 01:21:28 PM 35.7669 -104.7108 79° East 511 588 31,000  Level Albuquerque Center
Thu 01:22:30 PM 35.7956 -104.5369 78° East 511 588 31,000  Level Albuquerque Center
Thu 01:23:32 PM 35.8244 -104.3625 78° East 512 589 31,000  Level Albuquerque Center
Thu 01:24:34 PM 35.8522 -104.1886 79° East 511 588 31,000  Level Albuquerque Center
Thu 01:25:36 PM 35.8797 -104.0131 79° East 513 590 31,000  Level Albuquerque Center
Thu 01:26:38 PM 35.9078 -103.8375 79° East 514 592 31,000  Level Albuquerque Center
Thu 01:27:40 PM 35.9344 -103.6608 79° East 517 595 31,000  Level Albuquerque Center
Thu 01:28:42 PM 35.9617 -103.4844 79° East 517 595 31,000  Level Albuquerque Center
Thu 01:29:44 PM 35.9878 -103.3083 80° East 517 595 31,000  Level Albuquerque Center
Thu 01:30:46 PM 36.0197 -103.1022 79° East 519 597 31,000  Level Albuquerque Center
Thu 01:31:48 PM 36.0453 -102.9258 80° East 518 596 31,000  Level Albuquerque Center
Thu 01:32:50 PM 36.0714 -102.7456 80° East 518 596 31,000  Level Albuquerque Center
Thu 01:33:52 PM 36.0972 -102.5703 80° East 518 596 31,000  Level Albuquerque Center
Thu 01:34:54 PM 36.1217 -102.3950 80° East 516 594 31,000  Level Albuquerque Center
Thu 01:35:56 PM 36.1458 -102.2206 80° East 515 593 31,000  Level Albuquerque Center
Thu 01:36:58 PM 36.1708 -102.0458 80° East 514 592 31,000  Level Albuquerque Center
Thu 01:38:00 PM 36.1953 -101.8692 80° East 518 596 31,000  Level Albuquerque Center
Thu 01:39:02 PM 36.2242 -101.6589 80° East 516 594 31,000  Level Albuquerque Center
Thu 01:40:04 PM 36.2475 -101.4825 81° East 517 595 31,000  Level Albuquerque Center
Thu 01:41:06 PM 36.2711 -101.3100 80° East 512 589 31,000  Level Albuquerque Center
Thu 01:42:08 PM 36.2942 -101.1369 81° East 508 585 31,000  Level Albuquerque Center
Thu 01:43:09 PM 36.3158 -100.9625 81° East 511 588 31,000  Level Albuquerque Center
Thu 01:44:11 PM 36.3392 -100.7881 81° East 506 582 31,000  Level Albuquerque Center
Thu 01:45:13 PM 36.3611 -100.6156 81° East 505 581 31,000  Level Albuquerque Center
Thu 01:46:15 PM 36.3825 -100.4422 81° East 505 581 31,000  Level Albuquerque Center
Thu 01:47:35 PM 36.4128 -100.2008 81° East 504 580 31,000  Level Kansas City Center
Thu 01:48:37 PM 36.4328 -100.0275 82° East 504 580 31,000  Level Kansas City Center
Thu 01:49:39 PM 36.4547 -99.8531 81° East 508 585 31,000  Level Kansas City Center
Thu 01:50:41 PM 36.4756 -99.6797 81° East 506 582 31,000  Level Kansas City Center
Thu 01:51:44 PM 36.5003 -99.4694 82° East 508 585 31,000  Level Kansas City Center
Thu 01:52:46 PM 36.5194 -99.2950 82° East 505 581 31,000  Level Kansas City Center
Thu 01:53:48 PM 36.5400 -99.1206 82° East 506 582 31,000  Level Kansas City Center
Thu 01:54:50 PM 36.5600 -98.9461 82° East 506 582 31,000  Level Kansas City Center
Thu 01:55:52 PM 36.5794 -98.7736 82° East 503 579 31,000  Level Kansas City Center
Thu 01:56:54 PM 36.5992 -98.5986 82° East 505 581 31,000  Level Kansas City Center
Thu 01:57:56 PM 36.6175 -98.4258 82° East 503 579 31,000  Level Kansas City Center
Thu 01:58:58 PM 36.6353 -98.2536 83° East 501 577 31,000  Level Kansas City Center
Thu 02:00:00 PM 36.6581 -98.0475 82° East 500 575 31,000  Level Kansas City Center
Thu 02:01:02 PM 36.6736 -97.8725 84° East 505 581 31,000  Level Kansas City Center
Thu 02:02:04 PM 36.6911 -97.7256 82° East 496 571 31,000  Level Kansas City Center
Thu 02:03:06 PM 36.7078 -97.5522 83° East 500 575 31,000  Level Kansas City Center
Thu 02:04:08 PM 36.7275 -97.3606 83° East 499 574 31,000  Level Kansas City Center
Thu 02:05:10 PM 36.7436 -97.1933 83° East 492 566 31,000  Level Kansas City Center
Thu 02:06:12 PM 36.7706 -97.0247 79° East 486 559 31,000  Level Kansas City Center
Thu 02:07:14 PM 36.7986 -96.8597 78° East 486 559 31,000  Level Kansas City Center
Thu 02:08:16 PM 36.8339 -96.6575 78° East 493 567 31,000  Level Kansas City Center
Thu 02:09:18 PM 36.8631 -96.4903 78° East 493 567 31,000  Level Kansas City Center
Thu 02:10:20 PM 36.8903 -96.3225 78° East 491 565 31,000  Level Kansas City Center
Thu 02:11:22 PM 36.9186 -96.1547 78° East 491 565 31,000  Level Kansas City Center
Thu 02:12:24 PM 36.9469 -95.9853 78° East 493 567 31,000  Level Kansas City Center
Thu 02:13:26 PM 36.9747 -95.8167 78° East 493 567 31,000  Level Kansas City Center
Thu 02:14:28 PM 37.0028 -95.6478 78° East 493 567 31,000  Level Kansas City Center
Thu 02:15:30 PM 37.0297 -95.4764 79° East 496 571 31,000  Level Kansas City Center
Thu 02:16:32 PM 37.0633 -95.2761 78° East 488 562 31,000  Level Kansas City Center
Thu 02:17:34 PM 37.0906 -95.1075 79° East 488 562 31,000  Level Kansas City Center
Thu 02:18:36 PM 37.1167 -94.9381 79° East 492 566 31,000  Level Kansas City Center
Thu 02:19:38 PM 37.1433 -94.7689 79° East 493 567 31,000  Level Kansas City Center
Thu 02:20:40 PM 37.1697 -94.6000 79° East 492 566 31,000  Level Kansas City Center
Thu 02:21:42 PM 37.1947 -94.4286 80° East 496 571 31,000  Level Kansas City Center
Thu 02:22:44 PM 37.2211 -94.2589 79° East 495 570 31,000  Level Kansas City Center
Thu 02:23:46 PM 37.2511 -94.0572 79° East 496 571 31,000  Level Kansas City Center
Thu 02:24:48 PM 37.2764 -93.8869 79° East 496 571 31,000  Level Kansas City Center
Thu 02:25:50 PM 37.3011 -93.7164 80° East 497 572 31,000  Level Kansas City Center
Thu 02:26:52 PM 37.3256 -93.5461 80° East 497 572 31,000  Level Kansas City Center
Thu 02:27:54 PM 37.3492 -93.3758 80° East 496 571 31,000  Level Kansas City Center
Thu 02:28:56 PM 37.3717 -93.2083 80° East 491 565 31,000  Level Kansas City Center
Thu 02:29:58 PM 37.3936 -93.0033 82° East 492 566 31,000  Level Kansas City Center
Thu 02:31:00 PM 37.4125 -92.8336 82° East 492 566 31,000  Level Kansas City Center
Thu 02:32:02 PM 37.4306 -92.6628 82° East 495 570 31,000  Level Kansas City Center
Thu 02:33:04 PM 37.4497 -92.4928 82° East 494 568 31,000  Level Kansas City Center
Thu 02:34:06 PM 37.4678 -92.3256 82° East 491 565 31,000  Level Kansas City Center
Thu 02:35:08 PM 37.4864 -92.1569 82° East 489 563 31,000  Level Kansas City Center
Thu 02:36:09 PM 37.5069 -91.9533 83° East 491 565 31,000  Level Kansas City Center
Thu 02:37:11 PM 37.5244 -91.7831 83° East 492 566 31,000  Level Kansas City Center
Thu 02:38:13 PM 37.5425 -91.6125 82° East 492 566 31,000  Level Kansas City Center
Thu 02:39:15 PM 37.5597 -91.4408 83° East 493 567 31,000  Level Kansas City Center
Thu 02:40:17 PM 37.5767 -91.2697 83° East 494 568 31,000  Level Kansas City Center
Thu 02:41:19 PM 37.5933 -91.0981 83° East 494 568 31,000  Level Kansas City Center
Thu 02:42:21 PM 37.6125 -90.8900 83° East 497 572 31,000  Level Kansas City Center
Thu 02:43:23 PM 37.6292 -90.7253 83° East 495 570 31,000  Level Kansas City Center
Thu 02:44:25 PM 37.6447 -90.5531 83° East 496 571 31,000  Level Kansas City Center
Thu 02:45:27 PM 37.6597 -90.3806 84° East 497 572 31,000  Level Kansas City Center
Thu 02:46:29 PM 37.6747 -90.2078 84° East 498 573 31,000  Level Kansas City Center
Thu 02:47:31 PM 37.6983 -90.0014 82° East 499 574 31,000  Level Kansas City Center
Thu 02:48:33 PM 37.7181 -89.8289 82° East 499 574 31,000  Level Kansas City Center
Thu 02:49:35 PM 37.7375 -89.6558 82° East 501 577 31,000  Level Kansas City Center
Thu 02:50:37 PM 37.7556 -89.4828 82° East 499 574 31,000  Level Kansas City Center
Thu 02:51:40 PM 37.7744 -89.2975 83° East 498 573 31,000  Level Kansas City Center
Thu 02:52:42 PM 37.7933 -89.1244 82° East 496 571 31,000  Level Kansas City Center
Thu 02:53:44 PM 37.8111 -88.9242 84° East 493 567 31,000  Level Kansas City Center
Thu 02:54:46 PM 37.8261 -88.7631 83° East 494 568 31,000  Level Kansas City Center
Thu 02:55:48 PM 37.8500 -88.5786 81° East 496 571 31,000  Level Kansas City Center
Thu 02:56:50 PM 37.8675 -88.4039 83° East 499 574 31,000  Level Kansas City Center
Thu 02:57:52 PM 37.8831 -88.2292 84° East 499 574 31,000  Level Kansas City Center
Thu 02:58:44 PM 37.8981 -88.0900 82° East 498 573 31,000  Level Indianapolis Center
Thu 02:59:46 PM 37.9167 -87.8811 83° East 498 573 31,000  Level Indianapolis Center
Thu 03:00:48 PM 37.9325 -87.7089 83° East 494 568 31,000  Level Indianapolis Center
Thu 03:01:50 PM 37.9483 -87.5353 83° East 495 570 31,000  Level Indianapolis Center
Thu 03:02:52 PM 37.9628 -87.3628 84° East 495 570 31,000  Level Indianapolis Center
Thu 03:03:54 PM 37.9769 -87.1906 84° East 495 570 31,000  Level Indianapolis Center
Thu 03:04:56 PM 37.9947 -86.9839 84° East 497 572 31,000  Level Indianapolis Center
Thu 03:05:59 PM 38.0086 -86.8125 84° East 495 570 31,000  Level Indianapolis Center
Thu 03:07:00 PM 38.0233 -86.6406 84° East 494 568 31,000  Level Indianapolis Center
Thu 03:08:02 PM 38.0367 -86.4692 84° East 491 565 31,000  Level Indianapolis Center
Thu 03:09:04 PM 38.0503 -86.2981 84° East 490 564 31,000  Level Indianapolis Center
Thu 03:10:06 PM 38.0636 -86.1250 84° East 492 566 31,000  Level Indianapolis Center
Thu 03:11:08 PM 38.0789 -85.9189 85° East 488 562 31,000  Level Indianapolis Center
Thu 03:12:10 PM 38.0942 -85.7467 84° East 489 563 31,000  Level Indianapolis Center
Thu 03:13:12 PM 38.0994 -85.5731 88° East 494 568 31,000  Level Indianapolis Center
Thu 03:14:15 PM 38.0783 -85.4025 99° East 489 563 31,000 528 Level Indianapolis Center
Thu 03:15:17 PM 38.0517 -85.2347 101° East 485 558 32,100 1,306 Climbing Indianapolis Center
Thu 03:16:19 PM 38.0208 -85.0406 101° East 482 555 33,700 1,306 Climbing Indianapolis Center
Thu 03:17:21 PM 37.9758 -84.8814 110° East 480 552 34,800 629 Climbing Indianapolis Center
Thu 03:18:23 PM 37.9200 -84.7228 114° Southeast 486 559 35,000 97 Climbing Indianapolis Center
Thu 03:19:25 PM 37.8636 -84.5611 114° Southeast 497 572 35,000  Level Indianapolis Center
Thu 03:20:27 PM 37.8075 -84.3983 114° Southeast 500 575 35,000  Level Indianapolis Center
Thu 03:21:29 PM 37.7425 -84.2100 114° Southeast 500 575 35,000  Level Indianapolis Center
Thu 03:22:31 PM 37.6861 -84.0464 113° Southeast 506 582 35,000  Level Indianapolis Center
Thu 03:23:33 PM 37.6508 -83.8769 105° East 502 578 35,000  Level Indianapolis Center
Thu 03:24:35 PM 37.6617 -83.6972 86° East 507 583 35,000  Level Indianapolis Center
Thu 03:25:37 PM 37.6714 -83.5161 86° East 512 589 35,000  Level Indianapolis Center
Thu 03:26:39 PM 37.6831 -83.3400 85° East 505 581 35,000  Level Indianapolis Center
Thu 03:27:41 PM 37.7392 -83.1556 69° East 483 556 35,000  Level Indianapolis Center
Thu 03:28:43 PM 37.8044 -83.0064 61° Northeast 482 555 35,000  Level Indianapolis Center
Thu 03:29:45 PM 37.8675 -82.8656 60° Northeast 461 531 35,000  Level Indianapolis Center
Thu 03:30:47 PM 37.9308 -82.7267 60° Northeast 454 522 35,000  Level Indianapolis Center
Thu 03:31:49 PM 37.9925 -82.5864 61° Northeast 456 525 35,000  Level Indianapolis Center
Thu 03:32:51 PM 38.0553 -82.4467 60° Northeast 457 526 35,000  Level Indianapolis Center
Thu 03:33:54 PM 38.1158 -82.3058 61° Northeast 461 531 35,000  Level Indianapolis Center
Thu 03:34:56 PM 38.1925 -82.1339 60° Northeast 465 535 35,000  Level Indianapolis Center
Thu 03:35:58 PM 38.2553 -81.9892 61° Northeast 469 540 35,000  Level Indianapolis Center
Thu 03:37:00 PM 38.3172 -81.8456 61° Northeast 466 536 35,000  Level Indianapolis Center
Thu 03:38:02 PM 38.3478 -81.6875 76° East 475 547 35,000  Level Indianapolis Center
Thu 03:39:04 PM 38.3419 -81.5242 93° East 469 540 35,000 -145 Level Indianapolis Center
Thu 03:40:06 PM 38.3356 -81.3294 92° East 465 535 34,700 -774 Descending Indianapolis Center
Thu 03:41:08 PM 38.3283 -81.1633 93° East 471 542 33,400 -823 Descending Indianapolis Center
Thu 03:42:10 PM 38.3242 -80.9983 92° East 469 540 33,000 -129 Descending Indianapolis Center
Thu 03:44:14 PM 38.3111 -80.6639 93° East 475 547 33,000  Level Indianapolis Center
Thu 03:45:16 PM 38.3061 -80.4958 92° East 476 548 33,000  Level Indianapolis Center
Thu 03:46:18 PM 38.3314 -80.2997 81° East 475 547 33,000  Level Indianapolis Center
Thu 03:47:20 PM 38.3614 -80.1283 77° East 475 547 33,000 -145 Level Indianapolis Center
Thu 03:48:22 PM 38.3953 -79.9714 75° East 473 544 32,700 -1,258 Descending Indianapolis Center
Thu 03:49:24 PM 38.4336 -79.8167 72° East 468 539 30,400 -2,323 Descending Indianapolis Center
Thu 03:50:26 PM 38.4689 -79.6589 74° East 473 544 27,900 -2,256 Descending Indianapolis Center
Thu 03:51:29 PM 38.5106 -79.4758 74° East 461 531 25,700 -2,448 Descending Indianapolis Center
Thu 03:52:31 PM 38.5414 -79.3217 76° East 461 531 22,800 -2,409 Descending Indianapolis Center
Thu 03:53:36 PM 38.5708 -79.1528 77° East 448 516 20,600 -1,857 Descending Washington Center
Thu 03:54:37 PM 38.5958 -79.0131 77° East 429 494 18,900 -1,736 Descending Washington Center
Thu 03:55:37 PM 38.6183 -78.8786 78° East 408 470 17,100 -1,800 Descending Washington Center
Thu 03:56:37 PM 38.6447 -78.7469 76° East 386 444 15,300 -1,678 Descending Washington Center
Thu 03:57:35 PM 38.6750 -78.6231 73° East 374 430 13,800 -1,513 Descending Washington Center
Thu 03:58:36 PM 38.7031 -78.5072 73° East 352 405 12,300 -1,279 Descending Washington Center
Thu 03:59:37 PM 38.7264 -78.3992 74° East 327 376 11,200 -1,008 Descending Washington Center
Thu 04:00:35 PM 38.7742 -78.3183 53° Northeast 287 330 10,300 -958 Descending Washington Center
Thu 04:01:36 PM 38.8258 -78.2378 51° Northeast 287 330 9,300 -836 Descending Washington Center
Thu 04:02:37 PM 38.8572 -78.1428 67° East 287 330 8,600 -1,041 Descending Washington Center
Thu 04:03:37 PM 38.8864 -78.0450 69° East 287 330 7,200 -1,322 Descending Washington Center
Thu 04:04:35 PM 38.9153 -77.9528 68° East 287 330 6,000 -610 Descending Washington Center
Thu 04:05:35 PM 38.9419 -77.8683 68° East 287 330 6,000  Level Washington Center
Thu 04:06:36 PM 38.9647 -77.7675 74° East 280 322 6,000  Level Washington Center
Thu 04:07:36 PM 38.9558 -77.6736 97° East 275 316 6,000  Level Washington Center
Thu 04:08:50 PM 39.0000 -77.5833 58° Northeast 251 289 6,000  Level Potomac TRACON
Thu 04:09:56 PM 39.0833 -77.5667 North 211 243 6,000 -48 Level Potomac TRACON
Thu 04:10:56 PM 39.1333 -77.5667 360° North 212 244 5,900 -595 Descending Potomac TRACON
Thu 04:11:57 PM 39.1500 -77.5000 72° East 208 239 4,800 -893 Descending Potomac TRACON
Thu 04:12:57 PM 39.1167 -77.4667 142° Southeast 170 196 4,100 -700 Descending Potomac TRACON

Login

Don't have an account? Register now (free) for customized features, flight alerts, and more!